createdAt,value
2023-04-17T00:01:12.135Z,41.60
2023-04-17T00:02:32.991Z,39.03
2023-04-17T00:03:55.117Z,42.80
2023-04-17T00:05:15.858Z,40.33
2023-04-17T00:06:39.459Z,38.58
2023-04-17T00:08:07.870Z,41.78
2023-04-17T00:09:28.535Z,44.95
2023-04-17T00:11:00.575Z,37.33
2023-04-17T00:12:28.317Z,41.35
2023-04-17T00:13:49.428Z,38.25
2023-04-17T00:15:13.881Z,40.10
2023-04-17T00:16:34.723Z,38.45
2023-04-17T00:17:57.657Z,40.88
2023-04-17T00:19:19.513Z,41.63
2023-04-17T00:20:40.119Z,40.65
2023-04-17T00:22:02.501Z,41.15
2023-04-17T00:23:23.458Z,43.75
2023-04-17T00:24:44.057Z,38.95
2023-04-17T00:26:05.276Z,38.78
2023-04-17T00:27:26.134Z,39.20
2023-04-17T00:28:49.598Z,39.10
2023-04-17T00:30:14.083Z,35.28
2023-04-17T00:31:35.365Z,37.63
2023-04-17T00:33:05.092Z,35.92
2023-04-17T00:34:30.484Z,37.58
2023-04-17T00:35:51.942Z,37.22
2023-04-17T00:37:13.226Z,38.55
2023-04-17T00:38:33.647Z,36.67
2023-04-17T00:39:54.516Z,35.92
2023-04-17T00:41:15.289Z,37.42
2023-04-17T00:42:45.346Z,37.42
2023-04-17T00:44:07.479Z,40.22
2023-04-17T00:45:32.430Z,40.25
2023-04-17T00:46:58.389Z,40.45
2023-04-17T00:48:30.760Z,43.03
2023-04-17T00:49:57.686Z,40.83
2023-04-17T00:51:18.705Z,40.88
2023-04-17T00:52:43.242Z,46.53
2023-04-17T00:54:04.719Z,42.95
2023-04-17T00:57:00.475Z,39.22
2023-04-17T00:58:26.514Z,42.10
2023-04-17T00:59:52.477Z,38.42
2023-04-17T01:01:16.629Z,38.95
2023-04-17T01:02:38.263Z,35.78
2023-04-17T01:03:59.115Z,36.47
2023-04-17T01:05:21.528Z,36.47
2023-04-17T01:06:42.429Z,38.38
2023-04-17T01:08:03.441Z,40.25
2023-04-17T01:09:24.099Z,45.67
2023-04-17T01:10:44.991Z,40.25
2023-04-17T01:12:18.783Z,41.05
2023-04-17T01:13:45.482Z,42.72
2023-04-17T01:15:06.906Z,44.25
2023-04-17T01:16:27.813Z,42.03
2023-04-17T01:17:48.334Z,39.75
2023-04-17T01:19:09.190Z,40.33
2023-04-17T01:20:32.070Z,41.65
2023-04-17T01:21:52.589Z,39.53
2023-04-17T01:23:13.455Z,44.92
2023-04-17T01:24:35.557Z,46.28
2023-04-17T01:25:56.406Z,43.65
2023-04-17T01:27:17.122Z,42.20
2023-04-17T01:28:37.934Z,42.80
2023-04-17T01:29:58.236Z,46.67
2023-04-17T01:31:19.089Z,46.90
2023-04-17T01:32:39.785Z,46.72
2023-04-17T01:34:00.556Z,45.47
2023-04-17T01:35:21.298Z,43.55
2023-04-17T01:36:42.745Z,44.13
2023-04-17T01:38:03.182Z,42.20
2023-04-17T01:39:23.850Z,42.33
2023-04-17T01:40:46.190Z,46.55
2023-04-17T01:42:06.973Z,43.45
2023-04-17T01:43:29.134Z,41.97
2023-04-17T01:44:49.466Z,46.10
2023-04-17T01:46:10.470Z,41.00
2023-04-17T01:47:31.447Z,43.25
2023-04-17T01:48:52.269Z,45.75
2023-04-17T01:50:13.688Z,44.50
2023-04-17T01:52:55.282Z,44.78
2023-04-17T01:54:15.718Z,43.38
2023-04-17T01:55:36.533Z,43.40
2023-04-17T01:56:58.521Z,42.87
2023-04-17T01:58:19.009Z,44.15
2023-04-17T01:59:40.078Z,44.55
2023-04-17T02:01:00.858Z,43.33
2023-04-17T02:02:21.633Z,43.60
2023-04-17T02:03:42.447Z,45.63
2023-04-17T02:05:03.649Z,45.97
2023-04-17T02:06:24.366Z,45.53
2023-04-17T02:07:45.027Z,44.20
2023-04-17T02:09:07.197Z,44.42
2023-04-17T02:10:27.918Z,43.95
2023-04-17T02:11:48.840Z,52.13
2023-04-17T02:13:11.624Z,47.85
2023-04-17T02:14:32.164Z,49.38
2023-04-17T02:15:52.945Z,46.38
2023-04-17T02:17:13.731Z,46.67
2023-04-17T02:18:34.392Z,45.10
2023-04-17T02:19:55.070Z,45.90
2023-04-17T02:21:15.887Z,49.65
2023-04-17T02:22:36.750Z,47.78
2023-04-17T02:23:57.624Z,49.90
2023-04-17T02:25:18.185Z,45.10
2023-04-17T02:26:39.229Z,47.17
2023-04-17T02:28:00.557Z,47.10
2023-04-17T02:29:22.725Z,44.80
2023-04-17T02:30:43.471Z,45.35
2023-04-17T02:32:04.617Z,51.70
2023-04-17T02:33:25.357Z,53.17
2023-04-17T02:34:46.031Z,45.25
2023-04-17T02:36:07.332Z,47.50
2023-04-17T02:37:27.807Z,46.25
2023-04-17T02:38:48.677Z,43.75
2023-04-17T02:40:10.158Z,46.03
2023-04-17T02:41:30.974Z,47.65
2023-04-17T02:42:51.979Z,47.33
2023-04-17T02:44:12.441Z,43.75
2023-04-17T02:45:34.579Z,43.95
2023-04-17T02:46:55.227Z,44.15
2023-04-17T02:48:16.272Z,43.15
2023-04-17T02:49:36.762Z,43.88
2023-04-17T02:50:57.552Z,43.05
2023-04-17T02:52:18.779Z,44.97
2023-04-17T02:53:39.392Z,44.08
2023-04-17T02:55:00.173Z,40.20
2023-04-17T02:56:20.826Z,41.08
2023-04-17T02:57:41.678Z,40.53
2023-04-17T02:59:02.272Z,42.60
2023-04-17T03:00:23.295Z,43.00
2023-04-17T03:01:45.128Z,42.90
2023-04-17T03:03:05.540Z,43.35
2023-04-17T03:04:26.762Z,43.50
2023-04-17T03:05:47.397Z,43.63
2023-04-17T03:07:07.985Z,41.88
2023-04-17T03:08:28.523Z,43.90
2023-04-17T03:09:50.012Z,45.78
2023-04-17T03:11:10.629Z,44.97
2023-04-17T03:12:31.484Z,50.08
2023-04-17T03:13:51.970Z,47.00
2023-04-17T03:15:12.641Z,47.80
2023-04-17T03:16:33.394Z,45.25
2023-04-17T03:17:55.705Z,44.22
2023-04-17T03:19:16.286Z,42.58
2023-04-17T03:20:36.858Z,42.95
2023-04-17T03:21:57.631Z,40.08
2023-04-17T03:23:18.515Z,43.67
2023-04-17T03:24:39.274Z,41.70
2023-04-17T03:26:01.706Z,41.75
2023-04-17T03:27:22.485Z,40.40
2023-04-17T03:28:43.010Z,38.70
2023-04-17T03:30:04.097Z,37.53
2023-04-17T03:31:24.766Z,39.58
2023-04-17T03:32:45.362Z,39.17
2023-04-17T03:34:08.220Z,39.22
2023-04-17T03:35:29.072Z,38.30
2023-04-17T03:36:50.091Z,36.53
2023-04-17T03:38:10.579Z,34.80
2023-04-17T03:39:31.496Z,36.90
2023-04-17T03:40:51.955Z,35.05
2023-04-17T03:42:12.518Z,36.22
2023-04-17T03:43:33.189Z,38.33
2023-04-17T03:44:53.723Z,34.85
2023-04-17T03:46:14.193Z,37.30
2023-04-17T03:47:34.917Z,38.17
2023-04-17T03:48:55.729Z,37.30
2023-04-17T03:50:18.074Z,39.35
2023-04-17T03:51:38.903Z,38.72
2023-04-17T03:52:59.588Z,37.90
2023-04-17T03:54:20.486Z,41.90
2023-04-17T03:55:41.231Z,37.15
2023-04-17T03:57:02.528Z,37.25
2023-04-17T03:58:23.873Z,35.95
2023-04-17T03:59:44.417Z,36.13
2023-04-17T04:01:07.020Z,34.60
2023-04-17T04:02:27.596Z,36.73
2023-04-17T04:03:48.404Z,36.97
2023-04-17T04:05:12.220Z,34.20
2023-04-17T04:06:34.216Z,33.10
2023-04-17T04:07:54.720Z,34.78
2023-04-17T04:09:15.673Z,33.58
2023-04-17T04:10:36.449Z,34.65
2023-04-17T04:11:57.174Z,33.28
2023-04-17T04:13:17.843Z,34.73
2023-04-17T04:14:41.207Z,35.27
2023-04-17T04:16:02.301Z,36.17
2023-04-17T04:17:23.026Z,40.65
2023-04-17T04:18:43.672Z,37.22
2023-04-17T04:20:05.264Z,38.10
2023-04-17T04:22:47.534Z,37.22
2023-04-17T04:24:08.214Z,36.95
2023-04-17T04:25:28.858Z,37.00
2023-04-17T04:26:49.381Z,37.65
2023-04-17T04:28:10.397Z,35.70
2023-04-17T04:29:31.125Z,39.30
2023-04-17T04:30:51.830Z,36.72
2023-04-17T04:32:12.604Z,36.47
2023-04-17T04:33:33.244Z,36.45
2023-04-17T04:34:53.738Z,35.45
2023-04-17T04:36:14.795Z,34.03
2023-04-17T04:37:35.675Z,33.75
2023-04-17T04:38:58.204Z,33.58
2023-04-17T04:40:19.149Z,34.03
2023-04-17T04:41:39.919Z,31.95
2023-04-17T04:43:00.648Z,29.73
2023-04-17T04:44:21.712Z,28.40
2023-04-17T04:45:42.711Z,33.97
2023-04-17T04:47:03.635Z,34.95
2023-04-17T04:48:24.405Z,35.72
2023-04-17T04:49:44.973Z,35.40
2023-04-17T04:51:06.021Z,36.53
2023-04-17T04:52:26.659Z,32.20
2023-04-17T04:53:47.242Z,32.20
2023-04-17T04:55:09.766Z,34.15
2023-04-17T04:56:32.807Z,36.05
2023-04-17T04:57:53.762Z,35.80
2023-04-17T04:59:14.819Z,37.95
2023-04-17T05:00:35.509Z,36.70
2023-04-17T05:01:56.497Z,32.90
2023-04-17T05:03:17.241Z,30.70
2023-04-17T05:04:38.640Z,30.85
2023-04-17T05:05:59.821Z,31.52
2023-04-17T05:07:20.831Z,30.55
2023-04-17T05:08:41.769Z,32.40
2023-04-17T05:10:02.518Z,32.53
2023-04-17T05:11:24.740Z,30.52
2023-04-17T05:12:45.610Z,31.25
2023-04-17T05:14:06.253Z,31.37
2023-04-17T05:15:26.960Z,32.33
2023-04-17T05:16:48.180Z,33.45
2023-04-17T05:18:09.079Z,32.45
2023-04-17T05:19:29.806Z,32.88
2023-04-17T05:20:50.442Z,31.55
2023-04-17T05:22:11.118Z,35.30
2023-04-17T05:23:31.491Z,32.20
2023-04-17T05:24:53.158Z,36.38
2023-04-17T05:26:14.053Z,36.85
2023-04-17T05:27:36.397Z,34.38
2023-04-17T05:28:57.334Z,32.70
2023-04-17T05:30:18.212Z,33.50
2023-04-17T05:31:38.637Z,33.70
2023-04-17T05:32:59.423Z,32.72
2023-04-17T05:34:20.265Z,32.22
2023-04-17T05:35:40.832Z,31.10
2023-04-17T05:37:01.965Z,31.52
2023-04-17T05:38:22.582Z,32.58
2023-04-17T05:39:43.149Z,32.70
2023-04-17T05:41:03.778Z,35.25
2023-04-17T05:42:24.560Z,34.13
2023-04-17T05:43:47.162Z,32.15
2023-04-17T05:45:12.121Z,33.45
2023-04-17T05:46:32.724Z,32.15
2023-04-17T05:47:53.602Z,32.10
2023-04-17T05:49:14.267Z,32.03
2023-04-17T05:50:34.991Z,31.00
2023-04-17T05:51:55.978Z,34.55
2023-04-17T05:53:16.638Z,34.67
2023-04-17T05:54:37.333Z,34.00
2023-04-17T05:55:58.119Z,31.20
2023-04-17T05:57:18.899Z,31.73
2023-04-17T05:58:39.865Z,31.40
2023-04-17T06:00:02.089Z,32.63
2023-04-17T06:01:22.424Z,31.42
2023-04-17T06:02:44.068Z,32.77
2023-04-17T06:04:05.271Z,32.85
2023-04-17T06:05:26.112Z,32.30
2023-04-17T06:06:47.102Z,31.30
2023-04-17T06:08:07.913Z,31.45
2023-04-17T06:09:28.358Z,33.83
2023-04-17T06:10:49.417Z,31.33
2023-04-17T06:12:10.477Z,30.65
2023-04-17T06:13:32.024Z,32.40
2023-04-17T06:14:52.943Z,32.83
2023-04-17T06:16:15.188Z,33.45
2023-04-17T06:17:36.388Z,34.28
2023-04-17T06:18:57.365Z,34.25
2023-04-17T06:20:18.210Z,33.92
2023-04-17T06:21:38.804Z,32.35
2023-04-17T06:22:59.402Z,32.83
2023-04-17T06:24:20.253Z,33.60
2023-04-17T06:25:41.151Z,34.60
2023-04-17T06:27:01.993Z,33.38
2023-04-17T06:28:22.584Z,35.07
2023-04-17T06:29:43.434Z,32.67
2023-04-17T06:31:04.377Z,33.25
2023-04-17T06:32:27.034Z,31.40
2023-04-17T06:33:47.903Z,32.40
2023-04-17T06:35:09.577Z,32.08
2023-04-17T06:36:30.226Z,29.92
2023-04-17T06:37:50.989Z,30.73
2023-04-17T06:39:12.223Z,32.28
2023-04-17T06:40:33.610Z,30.58
2023-04-17T06:41:54.347Z,29.52
2023-04-17T06:43:16.025Z,30.05
2023-04-17T06:44:36.462Z,29.30
2023-04-17T06:45:57.266Z,29.00
2023-04-17T06:47:18.027Z,29.98
2023-04-17T06:48:40.450Z,28.77
2023-04-17T06:50:01.452Z,29.98
2023-04-17T06:51:21.985Z,30.43
2023-04-17T06:52:42.994Z,29.23
2023-04-17T06:54:03.433Z,31.50
2023-04-17T06:55:24.362Z,29.63
2023-04-17T06:56:45.094Z,28.42
2023-04-17T06:58:07.968Z,28.45
2023-04-17T06:59:28.828Z,29.00
2023-04-17T07:00:49.448Z,29.35
2023-04-17T07:02:10.559Z,31.77
2023-04-17T07:03:31.836Z,30.25
2023-04-17T07:04:54.223Z,29.48
2023-04-17T07:06:14.816Z,29.27
2023-04-17T07:07:35.533Z,27.73
2023-04-17T07:08:56.397Z,29.13
2023-04-17T07:10:17.053Z,33.00
2023-04-17T07:11:38.149Z,31.75
2023-04-17T07:12:58.624Z,28.98
2023-04-17T07:14:19.483Z,32.20
2023-04-17T07:15:40.088Z,31.77
2023-04-17T07:17:00.906Z,30.92
2023-04-17T07:18:21.893Z,32.15
2023-04-17T07:19:42.222Z,31.50
2023-04-17T07:21:04.415Z,33.33
2023-04-17T07:22:27.218Z,31.30
2023-04-17T07:23:48.503Z,31.25
2023-04-17T07:25:09.792Z,30.60
2023-04-17T07:26:30.281Z,31.77
2023-04-17T07:27:51.235Z,30.27
2023-04-17T07:29:12.690Z,30.63
2023-04-17T07:30:34.111Z,30.98
2023-04-17T07:31:54.843Z,31.98
2023-04-17T07:33:15.427Z,32.08
2023-04-17T07:34:36.220Z,29.95
2023-04-17T07:35:57.145Z,31.38
2023-04-17T07:37:19.340Z,34.60
2023-04-17T07:38:41.054Z,30.77
2023-04-17T07:40:01.578Z,32.22
2023-04-17T07:41:22.007Z,31.70
2023-04-17T07:42:42.926Z,32.17
2023-04-17T07:44:03.596Z,32.15
2023-04-17T07:45:24.596Z,31.83
2023-04-17T07:46:45.334Z,31.67
2023-04-17T07:48:06.168Z,32.60
2023-04-17T07:49:26.712Z,32.40
2023-04-17T07:50:47.776Z,30.98
2023-04-17T07:52:08.355Z,31.45
2023-04-17T07:53:30.648Z,30.85
2023-04-17T07:54:52.263Z,31.98
2023-04-17T07:56:14.390Z,32.47
2023-04-17T07:57:35.313Z,32.28
2023-04-17T07:58:56.281Z,31.58
2023-04-17T08:00:17.176Z,32.50
2023-04-17T08:01:37.579Z,33.70
2023-04-17T08:02:58.560Z,32.45
2023-04-17T08:04:19.866Z,33.42
2023-04-17T08:05:40.896Z,33.13
2023-04-17T08:07:01.532Z,30.75
2023-04-17T08:08:22.347Z,32.80
2023-04-17T08:09:44.333Z,32.55
2023-04-17T08:11:05.224Z,32.47
2023-04-17T08:12:26.195Z,34.50
2023-04-17T08:13:46.855Z,33.15
2023-04-17T08:15:08.688Z,32.65
2023-04-17T08:16:29.380Z,32.70
2023-04-17T08:17:50.519Z,33.25
2023-04-17T08:20:33.197Z,32.97
2023-04-17T08:22:01.432Z,33.58
2023-04-17T08:23:21.993Z,34.30
2023-04-17T08:24:44.281Z,34.60
2023-04-17T08:26:05.266Z,34.65
2023-04-17T08:27:26.400Z,32.78
2023-04-17T08:28:47.026Z,35.67
2023-04-17T08:30:11.994Z,35.13
2023-04-17T08:31:33.524Z,34.03
2023-04-17T08:32:54.461Z,32.70
2023-04-17T08:34:15.692Z,34.70
2023-04-17T08:35:36.481Z,32.95
2023-04-17T08:36:57.323Z,34.47
2023-04-17T08:38:17.965Z,32.93
2023-04-17T08:39:38.522Z,33.78
2023-04-17T08:41:03.902Z,33.42
2023-04-17T08:42:24.969Z,34.10
2023-04-17T08:43:48.203Z,33.78
2023-04-17T08:45:10.301Z,35.90
2023-04-17T08:46:31.572Z,34.53
2023-04-17T08:47:52.649Z,33.30
2023-04-17T08:49:13.746Z,32.85
2023-04-17T08:50:35.067Z,34.70
2023-04-17T08:51:55.966Z,31.17
2023-04-17T08:53:17.572Z,36.15
2023-04-17T08:54:38.803Z,35.60
2023-04-17T08:56:05.229Z,33.53
2023-04-17T08:57:28.014Z,34.88
2023-04-17T08:58:49.229Z,36.35
2023-04-17T09:00:12.841Z,34.75
2023-04-17T09:01:33.747Z,34.45
2023-04-17T09:02:56.296Z,32.42
2023-04-17T09:04:35.233Z,33.60
2023-04-17T09:05:57.730Z,34.08
2023-04-17T09:07:18.315Z,35.08
2023-04-17T09:08:39.560Z,34.90
2023-04-17T09:11:23.132Z,34.63
2023-04-17T09:12:59.733Z,33.78
2023-04-17T09:14:29.961Z,33.00
2023-04-17T09:16:06.497Z,32.75
2023-04-17T09:17:34.243Z,33.78
2023-04-17T09:19:05.710Z,33.78
2023-04-17T09:21:47.399Z,32.85
2023-04-17T09:23:08.145Z,31.60
2023-04-17T09:24:35.545Z,32.17
2023-04-17T09:26:06.567Z,32.15
2023-04-17T09:27:29.830Z,31.10
2023-04-17T09:29:02.280Z,32.60
2023-04-17T09:30:25.267Z,30.58
2023-04-17T09:31:46.314Z,32.63
2023-04-17T09:33:07.979Z,32.58
2023-04-17T09:34:29.739Z,31.63
2023-04-17T09:35:55.771Z,31.45
2023-04-17T09:37:18.318Z,30.23
2023-04-17T09:38:42.245Z,31.75
2023-04-17T09:40:04.912Z,30.65
2023-04-17T09:41:28.330Z,30.50
2023-04-17T09:42:58.521Z,29.55
2023-04-17T09:44:25.812Z,30.85
2023-04-17T09:45:46.982Z,30.90
2023-04-17T09:47:08.245Z,29.77
2023-04-17T09:48:29.612Z,32.22
2023-04-17T09:49:51.487Z,29.45
2023-04-17T09:51:12.587Z,30.30
2023-04-17T09:52:33.073Z,30.08
2023-04-17T09:53:54.481Z,29.92
2023-04-17T09:55:15.422Z,28.67
2023-04-17T09:56:36.511Z,31.17
2023-04-17T09:58:01.794Z,29.80
2023-04-17T09:59:23.140Z,30.88
2023-04-17T10:00:44.170Z,29.58
2023-04-17T10:02:07.790Z,29.20
2023-04-17T10:03:29.046Z,30.02
2023-04-17T10:04:49.518Z,30.48
2023-04-17T10:06:10.184Z,29.25
2023-04-17T10:07:32.130Z,30.67
2023-04-17T10:08:53.070Z,31.33
2023-04-17T10:10:16.373Z,31.33
2023-04-17T10:11:39.226Z,29.95
2023-04-17T10:13:02.797Z,29.25
2023-04-17T10:14:26.232Z,29.45
2023-04-17T10:15:46.918Z,29.60
2023-04-17T10:17:22.746Z,31.02
2023-04-17T10:18:43.409Z,30.25
2023-04-17T10:20:35.146Z,28.92
2023-04-17T10:22:30.238Z,29.98
2023-04-17T10:23:50.710Z,29.83
2023-04-17T10:25:19.407Z,28.77
2023-04-17T10:26:39.952Z,27.92
2023-04-17T10:28:02.589Z,28.70
2023-04-17T10:29:53.079Z,26.85
2023-04-17T10:31:14.144Z,25.80
2023-04-17T10:32:35.088Z,27.02
2023-04-17T10:33:55.764Z,27.77
2023-04-17T10:35:34.760Z,28.33
2023-04-17T10:36:55.455Z,25.75
2023-04-17T10:38:15.917Z,27.50
2023-04-17T10:39:49.987Z,25.93
2023-04-17T10:41:10.875Z,25.40
2023-04-17T10:42:31.729Z,26.67
2023-04-17T10:43:57.659Z,26.70
2023-04-17T10:45:19.217Z,23.98
2023-04-17T10:46:48.023Z,26.73
2023-04-17T10:48:20.017Z,25.10
2023-04-17T10:49:50.880Z,24.48
2023-04-17T10:51:39.551Z,23.60
2023-04-17T10:53:00.420Z,24.45
2023-04-17T10:54:21.254Z,23.15
2023-04-17T10:55:48.796Z,23.13
2023-04-17T10:57:09.245Z,23.80
2023-04-17T10:58:31.557Z,23.17
2023-04-17T11:00:11.167Z,24.02
2023-04-17T11:01:39.288Z,23.85
2023-04-17T11:03:01.265Z,22.95
2023-04-17T11:04:23.928Z,24.38
2023-04-17T11:05:45.053Z,24.42
2023-04-17T11:07:05.940Z,24.52
2023-04-17T11:08:26.466Z,21.88
2023-04-17T11:09:51.695Z,22.83
2023-04-17T11:11:12.668Z,22.30
2023-04-17T11:12:33.481Z,22.40
2023-04-17T11:13:54.055Z,22.02
2023-04-17T11:15:16.753Z,22.30
2023-04-17T11:16:38.364Z,22.13
2023-04-17T11:19:21.607Z,21.67
2023-04-17T11:20:42.460Z,22.77
2023-04-17T11:22:03.332Z,22.13
2023-04-17T11:23:24.293Z,21.05
2023-04-17T11:24:45.116Z,20.77
2023-04-17T11:26:06.385Z,21.38
2023-04-17T11:28:47.927Z,21.35
2023-04-17T11:30:09.561Z,20.58
2023-04-17T11:32:52.113Z,20.23
2023-04-17T11:34:13.353Z,20.02
2023-04-17T11:35:35.717Z,19.25
2023-04-17T11:36:57.252Z,18.73
2023-04-17T11:38:19.674Z,20.92
2023-04-17T11:39:42.510Z,19.92
2023-04-17T11:41:03.082Z,20.75
2023-04-17T11:42:26.635Z,19.50
2023-04-17T11:43:46.928Z,20.33
2023-04-17T11:45:08.301Z,21.88
2023-04-17T11:46:31.121Z,19.17
2023-04-17T11:47:52.586Z,19.63
2023-04-17T11:49:13.159Z,19.25
2023-04-17T11:50:35.596Z,17.80
2023-04-17T11:51:59.531Z,18.05
2023-04-17T11:53:20.327Z,19.40
2023-04-17T11:54:40.864Z,18.45
2023-04-17T11:56:11.785Z,18.98
2023-04-17T11:57:41.310Z,19.20
2023-04-17T11:59:02.051Z,19.85
2023-04-17T12:00:26.965Z,19.58
2023-04-17T12:01:52.944Z,18.67
2023-04-17T12:03:32.110Z,20.13
2023-04-17T12:05:13.111Z,19.27
2023-04-17T12:06:37.074Z,20.55
2023-04-17T12:08:04.583Z,20.00
2023-04-17T12:09:24.911Z,19.35
2023-04-17T12:10:45.755Z,19.30
2023-04-17T12:12:07.866Z,19.80
2023-04-17T12:13:28.598Z,20.15
2023-04-17T12:14:49.282Z,19.50
2023-04-17T12:16:10.108Z,19.42
2023-04-17T12:17:32.352Z,20.05
2023-04-17T12:18:53.495Z,18.63
2023-04-17T12:20:15.374Z,19.90
2023-04-17T12:21:35.826Z,18.13
2023-04-17T12:22:56.492Z,19.92
2023-04-17T12:24:16.951Z,19.25
2023-04-17T12:25:37.833Z,20.02
2023-04-17T12:26:58.208Z,19.15
2023-04-17T12:28:18.854Z,19.70
2023-04-17T12:29:44.595Z,19.27
2023-04-17T12:31:05.803Z,19.77
2023-04-17T12:32:26.495Z,19.90
2023-04-17T12:33:48.379Z,20.42
2023-04-17T12:35:09.805Z,19.23
2023-04-17T12:36:30.824Z,19.42
2023-04-17T12:37:51.330Z,20.35
2023-04-17T12:39:11.732Z,20.45
2023-04-17T12:40:32.380Z,19.60
2023-04-17T12:41:53.251Z,18.88
2023-04-17T12:43:13.855Z,17.93
2023-04-17T12:44:34.551Z,17.33
2023-04-17T12:45:57.742Z,18.95
2023-04-17T12:47:18.625Z,20.60
2023-04-17T12:48:39.217Z,19.05
2023-04-17T12:50:01.227Z,19.23
2023-04-17T12:51:21.935Z,19.85
2023-04-17T12:52:44.927Z,19.85
2023-04-17T12:54:06.105Z,19.85
2023-04-17T12:55:27.080Z,20.23
2023-04-17T12:56:47.879Z,17.75
2023-04-17T12:58:11.508Z,19.45
2023-04-17T12:59:32.217Z,18.77
2023-04-17T13:00:52.825Z,17.83
2023-04-17T13:02:13.675Z,17.30
2023-04-17T13:03:34.660Z,18.35
2023-04-17T13:04:55.299Z,19.42
2023-04-17T13:06:17.414Z,18.25
2023-04-17T13:07:38.113Z,17.98
2023-04-17T13:08:58.818Z,17.60
2023-04-17T13:10:19.621Z,19.33
2023-04-17T13:11:40.112Z,20.45
2023-04-17T13:13:01.209Z,18.55
2023-04-17T13:14:21.683Z,18.15
2023-04-17T13:15:43.377Z,17.60
2023-04-17T13:17:04.568Z,19.15
2023-04-17T13:18:24.984Z,17.33
2023-04-17T13:19:45.847Z,18.73
2023-04-17T13:21:06.987Z,19.20
2023-04-17T13:22:28.801Z,17.83
2023-04-17T13:23:49.599Z,18.33
2023-04-17T13:25:10.494Z,17.47
2023-04-17T13:26:30.994Z,18.10
2023-04-17T13:27:51.670Z,18.17
2023-04-17T13:29:12.694Z,18.63
2023-04-17T13:30:33.601Z,18.40
2023-04-17T13:31:54.225Z,18.30
2023-04-17T13:33:15.158Z,17.60
2023-04-17T13:34:35.832Z,18.35
2023-04-17T13:35:56.246Z,17.63
2023-04-17T13:37:17.201Z,16.42
2023-04-17T13:38:39.352Z,18.60
2023-04-17T13:39:59.888Z,17.65
2023-04-17T13:41:20.734Z,17.70
2023-04-17T13:42:41.395Z,18.70
2023-04-17T13:44:02.069Z,18.23
2023-04-17T13:45:22.868Z,20.70
2023-04-17T13:46:43.488Z,19.50
2023-04-17T13:48:04.327Z,18.80
2023-04-17T13:49:25.509Z,18.42
2023-04-17T13:50:46.191Z,18.25
2023-04-17T13:52:07.183Z,19.08
2023-04-17T13:53:27.620Z,18.83
2023-04-17T13:54:51.757Z,19.33
2023-04-17T13:56:13.232Z,19.67
2023-04-17T13:58:55.206Z,19.40
2023-04-17T14:00:16.515Z,19.15
2023-04-17T14:01:38.090Z,18.83
2023-04-17T14:02:58.899Z,21.17
2023-04-17T14:04:20.113Z,18.45
2023-04-17T14:05:40.759Z,19.92
2023-04-17T14:07:01.771Z,19.67
2023-04-17T14:08:22.902Z,18.83
2023-04-17T14:09:44.024Z,19.73
2023-04-17T14:11:06.533Z,20.00
2023-04-17T14:12:27.269Z,20.42
2023-04-17T14:13:48.203Z,19.80
2023-04-17T14:15:10.221Z,19.85
2023-04-17T14:16:32.153Z,18.85
2023-04-17T14:17:53.127Z,19.20
2023-04-17T14:19:14.818Z,19.10
2023-04-17T14:20:36.210Z,18.23
2023-04-17T14:21:56.760Z,18.50
2023-04-17T14:23:17.437Z,17.98
2023-04-17T14:24:38.259Z,17.05
2023-04-17T14:25:59.315Z,16.60
2023-04-17T14:27:21.241Z,15.95
2023-04-17T14:28:41.978Z,17.70
2023-04-17T14:30:02.742Z,17.48
2023-04-17T14:31:23.433Z,16.92
2023-04-17T14:32:43.951Z,17.33
2023-04-17T14:34:04.415Z,16.25
2023-04-17T14:35:25.190Z,18.00
2023-04-17T14:36:46.182Z,16.65
2023-04-17T14:38:07.075Z,16.13
2023-04-17T14:39:29.545Z,17.15
2023-04-17T14:40:51.711Z,17.17
2023-04-17T14:43:34.835Z,17.80
2023-04-17T14:44:55.675Z,17.85
2023-04-17T14:46:16.219Z,17.50
2023-04-17T14:47:36.849Z,17.52
2023-04-17T14:48:57.498Z,17.20
2023-04-17T14:50:18.682Z,17.77
2023-04-17T14:51:39.231Z,17.48
2023-04-17T14:53:00.030Z,18.35
2023-04-17T14:54:20.810Z,18.00
2023-04-17T14:55:41.405Z,16.95
2023-04-17T14:57:01.984Z,17.73
2023-04-17T14:58:22.845Z,18.10
2023-04-17T14:59:44.913Z,18.20
2023-04-17T15:01:08.925Z,18.05
2023-04-17T15:02:29.874Z,17.48
2023-04-17T15:03:51.075Z,18.00
2023-04-17T15:05:12.443Z,16.90
2023-04-17T15:06:33.952Z,16.80
2023-04-17T15:07:57.073Z,16.73
2023-04-17T15:09:18.487Z,16.20
2023-04-17T15:10:50.183Z,17.05
2023-04-17T15:12:12.627Z,17.23
2023-04-17T15:14:55.038Z,16.40
2023-04-17T15:16:16.156Z,15.82
2023-04-17T15:17:37.244Z,15.38
2023-04-17T15:18:58.041Z,14.82
2023-04-17T15:20:22.046Z,16.25
2023-04-17T15:21:42.989Z,15.30
2023-04-17T15:23:04.423Z,15.27
2023-04-17T15:24:25.667Z,15.45
2023-04-17T15:25:46.291Z,16.98
2023-04-17T15:27:07.216Z,15.52
2023-04-17T15:28:27.961Z,14.88
2023-04-17T15:29:48.557Z,17.20
2023-04-17T15:31:10.892Z,16.45
2023-04-17T15:32:31.523Z,16.05
2023-04-17T15:33:52.500Z,15.70
2023-04-17T15:35:13.406Z,15.25
2023-04-17T15:36:34.242Z,16.52
2023-04-17T15:37:55.122Z,14.98
2023-04-17T15:39:15.994Z,16.20
2023-04-17T15:40:37.170Z,15.07
2023-04-17T15:41:58.122Z,15.77
2023-04-17T15:43:18.992Z,15.05
2023-04-17T15:44:39.554Z,15.52
2023-04-17T15:46:02.781Z,15.17
2023-04-17T15:47:24.979Z,16.13
2023-04-17T15:48:46.713Z,15.13
2023-04-17T15:50:11.398Z,15.10
2023-04-17T15:51:32.215Z,16.55
2023-04-17T15:52:52.950Z,14.80
2023-04-17T15:54:13.357Z,14.80
2023-04-17T15:55:34.271Z,15.33
2023-04-17T15:56:55.477Z,15.45
2023-04-17T15:58:16.756Z,14.25
2023-04-17T15:59:37.395Z,14.32
2023-04-17T16:00:58.110Z,13.88
2023-04-17T16:02:19.228Z,14.30
2023-04-17T16:03:41.464Z,15.52
2023-04-17T16:05:02.964Z,14.13
2023-04-17T16:06:23.885Z,14.80
2023-04-17T16:07:44.576Z,14.43
2023-04-17T16:09:07.808Z,14.55
2023-04-17T16:10:28.630Z,14.13
2023-04-17T16:11:49.672Z,15.23
2023-04-17T16:13:10.563Z,14.38
2023-04-17T16:14:34.324Z,15.88
2023-04-17T16:15:54.854Z,14.93
2023-04-17T16:17:15.486Z,15.02
2023-04-17T16:18:35.996Z,16.65
2023-04-17T16:19:58.212Z,17.65
2023-04-17T16:21:19.016Z,17.70
2023-04-17T16:22:39.968Z,17.95
2023-04-17T16:24:00.678Z,16.23
2023-04-17T16:25:21.176Z,15.27
2023-04-17T16:26:41.815Z,15.50
2023-04-17T16:28:02.463Z,15.90
2023-04-17T16:29:23.592Z,15.18
2023-04-17T16:30:44.148Z,16.02
2023-04-17T16:32:04.985Z,15.75
2023-04-17T16:33:25.802Z,16.30
2023-04-17T16:34:46.755Z,16.05
2023-04-17T16:36:09.415Z,15.43
2023-04-17T16:37:30.104Z,15.70
2023-04-17T16:38:50.713Z,16.02
2023-04-17T16:40:12.240Z,15.57
2023-04-17T16:41:33.294Z,16.58
2023-04-17T16:42:54.209Z,16.70
2023-04-17T16:44:16.571Z,16.45
2023-04-17T16:45:37.576Z,16.92
2023-04-17T16:47:12.800Z,16.73
2023-04-17T16:48:35.376Z,16.08
2023-04-17T16:49:56.283Z,16.00
2023-04-17T16:51:18.580Z,15.35
2023-04-17T16:52:39.714Z,15.80
2023-04-17T16:54:00.878Z,16.05
2023-04-17T16:55:21.431Z,16.90
2023-04-17T16:56:42.581Z,16.95
2023-04-17T16:58:03.497Z,17.08
2023-04-17T16:59:24.182Z,16.48
2023-04-17T17:00:45.032Z,16.27
2023-04-17T17:02:05.848Z,15.00
2023-04-17T17:03:27.006Z,15.77
2023-04-17T17:04:48.214Z,16.15
2023-04-17T17:06:09.085Z,17.08
2023-04-17T17:07:31.315Z,16.58
2023-04-17T17:10:12.976Z,18.15
2023-04-17T17:11:34.102Z,17.27
2023-04-17T17:12:55.160Z,18.60
2023-04-17T17:14:15.655Z,17.00
2023-04-17T17:15:36.382Z,17.40
2023-04-17T17:16:57.327Z,16.67
2023-04-17T17:18:18.188Z,17.65
2023-04-17T17:19:38.912Z,17.75
2023-04-17T17:20:59.560Z,16.13
2023-04-17T17:22:20.122Z,18.05
2023-04-17T17:23:42.536Z,17.55
2023-04-17T17:25:03.690Z,17.92
2023-04-17T17:26:24.625Z,17.70
2023-04-17T17:27:45.327Z,17.42
2023-04-17T17:29:05.966Z,18.17
2023-04-17T17:30:26.884Z,16.83
2023-04-17T17:31:48.337Z,17.42
2023-04-17T17:33:08.688Z,18.55
2023-04-17T17:34:30.715Z,18.63
2023-04-17T17:35:51.434Z,18.85
2023-04-17T17:37:12.159Z,18.10
2023-04-17T17:38:33.262Z,17.58
2023-04-17T17:39:55.256Z,17.07
2023-04-17T17:41:15.801Z,19.05
2023-04-17T17:42:37.071Z,18.92
2023-04-17T17:43:59.007Z,17.55
2023-04-17T17:45:20.283Z,16.77
2023-04-17T17:46:42.032Z,17.35
2023-04-17T17:48:02.974Z,17.67
2023-04-17T17:49:24.048Z,18.73
2023-04-17T17:50:46.101Z,20.10
2023-04-17T17:52:06.704Z,20.08
2023-04-17T17:53:27.936Z,20.90